KIPL

Details ICAO KIPL (IPL)
Name IMPERIAL CO
Region United States
Timezone America/Los_Angeles (UTC-7.0)
Plans Departing 22
Arriving 10
Stats Elevation -54 ft / -16 m (AMSL)
Location 32.834066° -115.579060°
Runways 2
Magnetic Variation 11.144° E
Sunrise 2018-05-27 12:38:08 UTC / 2018-05-27 05:38:08 Local
Sunset 2018-05-28 02:43:46 UTC / 2018-05-27 19:43:46 Local
Advertisement - Login to hide

Runways

ID Width Length Bearing (true) Bearing (mag) Surface Threshold Offset Overrun Length
08 75 ft / 23 m 4,492 ft / 1,369 m 89.97° 78.83° Asphalt 0 ft / 0 m 0 ft / 0 m
14 100 ft / 30 m 5,314 ft / 1,620 m 152.81° 141.67° Asphalt 0 ft / 0 m 0 ft / 0 m
26 75 ft / 23 m 4,492 ft / 1,369 m 269.98° 258.84° Asphalt 0 ft / 0 m 0 ft / 0 m
32 100 ft / 30 m 5,314 ft / 1,620 m 332.81° 321.67° Asphalt 0 ft / 0 m 0 ft / 0 m

Map

Weather


0- 5 10 15 20 25 30 35+ Temperature / ° C

Clouds and Precipitation
Forecast for 2018-05-27 12:00 UTC. Updated an hour ago

Ground ~20,000 ft ~40,000 ft Winds

METAR

KIPL 270953Z AUTO 27007KT 10SM CLR 17/08 A2977 RMK AO2 SLP082 T01670078

TAF

TAF KIPL 270520Z 2706/2806 27012G20KT P6SM SKC FM271000 28007KT P6SM SKC

Frequencies

Recorded 132.17 MHz ASOS
Unicom 122.70 MHz CTAF/UNICOM
Warning: Do not use this data for real-world aviation or navigation. No guarantee of current accuracy is given.